sensor_id;sensor_type;location;lat;lon;timestamp;temperature;humidity
30475;DHT22;17264;53.340;9.888;2022-07-29T00:01:32;12.90;99.90
30475;DHT22;17264;53.340;9.888;2022-07-29T00:03:58;12.90;99.90
30475;DHT22;17264;53.340;9.888;2022-07-29T00:06:23;12.90;99.90
30475;DHT22;17264;53.340;9.888;2022-07-29T00:08:49;12.90;99.90
30475;DHT22;17264;53.340;9.888;2022-07-29T00:11:14;12.90;99.90
30475;DHT22;17264;53.340;9.888;2022-07-29T00:13:40;12.80;99.90
30475;DHT22;17264;53.340;9.888;2022-07-29T00:16:05;12.80;99.90
30475;DHT22;17264;53.340;9.888;2022-07-29T00:18:31;12.80;99.90
30475;DHT22;17264;53.340;9.888;2022-07-29T00:20:57;12.80;99.90
30475;DHT22;17264;53.340;9.888;2022-07-29T00:23:22;12.80;99.90
30475;DHT22;17264;53.340;9.888;2022-07-29T00:25:48;12.70;99.90
30475;DHT22;17264;53.340;9.888;2022-07-29T00:28:13;12.70;99.90
30475;DHT22;17264;53.340;9.888;2022-07-29T00:30:39;12.70;99.90
30475;DHT22;17264;53.340;9.888;2022-07-29T00:33:07;12.70;99.90
30475;DHT22;17264;53.340;9.888;2022-07-29T00:35:32;12.70;99.90
30475;DHT22;17264;53.340;9.888;2022-07-29T00:38:11;12.70;99.90
30475;DHT22;17264;53.340;9.888;2022-07-29T00:40:36;12.70;99.90
30475;DHT22;17264;53.340;9.888;2022-07-29T00:43:02;12.70;99.90
30475;DHT22;17264;53.340;9.888;2022-07-29T00:45:28;12.70;99.90
30475;DHT22;17264;53.340;9.888;2022-07-29T00:47:55;12.70;99.90
30475;DHT22;17264;53.340;9.888;2022-07-29T00:50:20;12.60;99.90
30475;DHT22;17264;53.340;9.888;2022-07-29T00:52:46;12.60;99.90
30475;DHT22;17264;53.340;9.888;2022-07-29T00:55:12;12.60;99.90
30475;DHT22;17264;53.340;9.888;2022-07-29T00:57:38;12.60;99.90
30475;DHT22;17264;53.340;9.888;2022-07-29T01:00:04;12.70;99.90
30475;DHT22;17264;53.340;9.888;2022-07-29T01:02:30;12.60;99.90
30475;DHT22;17264;53.340;9.888;2022-07-29T01:04:56;12.70;99.90
30475;DHT22;17264;53.340;9.888;2022-07-29T01:07:22;12.70;99.90
30475;DHT22;17264;53.340;9.888;2022-07-29T01:09:48;12.70;99.90
30475;DHT22;17264;53.340;9.888;2022-07-29T01:12:17;12.70;99.90
30475;DHT22;17264;53.340;9.888;2022-07-29T01:14:44;12.70;99.90
30475;DHT22;17264;53.340;9.888;2022-07-29T01:30:21;12.70;99.90
30475;DHT22;17264;53.340;9.888;2022-07-29T01:32:47;12.70;99.90
30475;DHT22;17264;53.340;9.888;2022-07-29T01:38:07;12.80;99.90
30475;DHT22;17264;53.340;9.888;2022-07-29T01:43:27;12.80;99.90
30475;DHT22;17264;53.340;9.888;2022-07-29T01:45:58;12.80;99.90
30475;DHT22;17264;53.340;9.888;2022-07-29T01:48:34;12.80;99.90
30475;DHT22;17264;53.340;9.888;2022-07-29T01:51:04;12.70;99.90
30475;DHT22;17264;53.340;9.888;2022-07-29T01:53:47;12.80;99.90
30475;DHT22;17264;53.340;9.888;2022-07-29T01:56:16;12.80;99.90
30475;DHT22;17264;53.340;9.888;2022-07-29T01:58:43;12.80;99.90
30475;DHT22;17264;53.340;9.888;2022-07-29T02:01:10;12.80;99.90
30475;DHT22;17264;53.340;9.888;2022-07-29T02:03:37;12.80;99.90
30475;DHT22;17264;53.340;9.888;2022-07-29T02:06:04;12.70;99.90
30475;DHT22;17264;53.340;9.888;2022-07-29T02:08:30;12.80;99.90
30475;DHT22;17264;53.340;9.888;2022-07-29T02:10:58;12.80;99.90
30475;DHT22;17264;53.340;9.888;2022-07-29T02:13:24;12.80;99.90
30475;DHT22;17264;53.340;9.888;2022-07-29T02:15:51;12.70;99.90
30475;DHT22;17264;53.340;9.888;2022-07-29T02:18:18;12.70;99.90
30475;DHT22;17264;53.340;9.888;2022-07-29T02:20:47;12.70;99.90
30475;DHT22;17264;53.340;9.888;2022-07-29T02:23:14;12.70;99.90
30475;DHT22;17264;53.340;9.888;2022-07-29T02:25:41;12.80;99.90
30475;DHT22;17264;53.340;9.888;2022-07-29T02:28:07;12.70;99.90
30475;DHT22;17264;53.340;9.888;2022-07-29T02:30:33;12.70;99.90
30475;DHT22;17264;53.340;9.888;2022-07-29T02:33:00;12.80;99.90
30475;DHT22;17264;53.340;9.888;2022-07-29T02:35:26;12.70;99.90
30475;DHT22;17264;53.340;9.888;2022-07-29T02:37:52;12.70;99.90
30475;DHT22;17264;53.340;9.888;2022-07-29T02:40:37;12.70;99.90
30475;DHT22;17264;53.340;9.888;2022-07-29T02:43:03;12.80;99.90
30475;DHT22;17264;53.340;9.888;2022-07-29T02:45:30;12.70;99.90
30475;DHT22;17264;53.340;9.888;2022-07-29T02:47:56;12.70;99.90
30475;DHT22;17264;53.340;9.888;2022-07-29T02:50:28;12.70;99.90
30475;DHT22;17264;53.340;9.888;2022-07-29T02:53:28;12.60;99.90
30475;DHT22;17264;53.340;9.888;2022-07-29T02:55:49;12.60;99.90
30475;DHT22;17264;53.340;9.888;2022-07-29T02:58:29;12.60;99.90
30475;DHT22;17264;53.340;9.888;2022-07-29T03:01:03;12.50;99.90
30475;DHT22;17264;53.340;9.888;2022-07-29T03:03:29;12.50;99.90
30475;DHT22;17264;53.340;9.888;2022-07-29T03:05:56;12.40;99.90
30475;DHT22;17264;53.340;9.888;2022-07-29T03:08:23;12.40;99.90
30475;DHT22;17264;53.340;9.888;2022-07-29T03:10:49;12.40;99.90
30475;DHT22;17264;53.340;9.888;2022-07-29T03:13:15;12.40;99.90
30475;DHT22;17264;53.340;9.888;2022-07-29T03:15:44;12.40;99.90
30475;DHT22;17264;53.340;9.888;2022-07-29T03:18:10;12.30;99.90
30475;DHT22;17264;53.340;9.888;2022-07-29T03:20:36;12.30;99.90
30475;DHT22;17264;53.340;9.888;2022-07-29T03:23:02;12.40;99.90
30475;DHT22;17264;53.340;9.888;2022-07-29T03:25:27;12.40;99.90
30475;DHT22;17264;53.340;9.888;2022-07-29T03:27:53;12.40;99.90
30475;DHT22;17264;53.340;9.888;2022-07-29T03:30:19;12.50;99.90
30475;DHT22;17264;53.340;9.888;2022-07-29T03:32:44;12.50;99.90
30475;DHT22;17264;53.340;9.888;2022-07-29T03:35:10;12.50;99.90
30475;DHT22;17264;53.340;9.888;2022-07-29T03:37:35;12.60;99.90
30475;DHT22;17264;53.340;9.888;2022-07-29T03:40:03;12.60;99.90
30475;DHT22;17264;53.340;9.888;2022-07-29T03:42:31;12.60;99.90
30475;DHT22;17264;53.340;9.888;2022-07-29T03:44:57;12.60;99.90
30475;DHT22;17264;53.340;9.888;2022-07-29T03:47:24;12.60;99.90
30475;DHT22;17264;53.340;9.888;2022-07-29T03:49:54;12.60;99.90
30475;DHT22;17264;53.340;9.888;2022-07-29T03:52:21;12.60;99.90
30475;DHT22;17264;53.340;9.888;2022-07-29T03:54:47;12.70;99.90
30475;DHT22;17264;53.340;9.888;2022-07-29T03:57:12;12.70;99.90
30475;DHT22;17264;53.340;9.888;2022-07-29T03:59:39;12.70;99.90
30475;DHT22;17264;53.340;9.888;2022-07-29T04:02:05;12.80;99.90
30475;DHT22;17264;53.340;9.888;2022-07-29T04:04:32;12.80;99.90
30475;DHT22;17264;53.340;9.888;2022-07-29T04:06:58;12.80;99.90
30475;DHT22;17264;53.340;9.888;2022-07-29T04:09:23;12.90;99.90
30475;DHT22;17264;53.340;9.888;2022-07-29T04:11:49;12.90;99.90
30475;DHT22;17264;53.340;9.888;2022-07-29T04:14:15;12.90;99.90
30475;DHT22;17264;53.340;9.888;2022-07-29T04:16:40;12.90;99.90
30475;DHT22;17264;53.340;9.888;2022-07-29T04:19:06;13.00;99.90
30475;DHT22;17264;53.340;9.888;2022-07-29T04:21:36;12.90;99.90
30475;DHT22;17264;53.340;9.888;2022-07-29T04:24:01;13.00;99.90
30475;DHT22;17264;53.340;9.888;2022-07-29T04:26:27;13.00;99.90
30475;DHT22;17264;53.340;9.888;2022-07-29T04:28:52;13.10;99.90
30475;DHT22;17264;53.340;9.888;2022-07-29T04:31:18;13.10;99.90
30475;DHT22;17264;53.340;9.888;2022-07-29T04:33:43;13.20;99.90
30475;DHT22;17264;53.340;9.888;2022-07-29T04:36:09;13.20;99.90
30475;DHT22;17264;53.340;9.888;2022-07-29T04:38:36;13.20;99.90
30475;DHT22;17264;53.340;9.888;2022-07-29T04:41:02;13.30;99.90
30475;DHT22;17264;53.340;9.888;2022-07-29T04:43:27;13.30;99.90
30475;DHT22;17264;53.340;9.888;2022-07-29T04:45:53;13.40;99.90
30475;DHT22;17264;53.340;9.888;2022-07-29T04:48:18;13.50;99.90
30475;DHT22;17264;53.340;9.888;2022-07-29T04:50:44;13.50;99.90
30475;DHT22;17264;53.340;9.888;2022-07-29T04:53:09;13.50;99.90
30475;DHT22;17264;53.340;9.888;2022-07-29T04:55:35;13.60;99.90
30475;DHT22;17264;53.340;9.888;2022-07-29T04:58:01;13.70;99.90
30475;DHT22;17264;53.340;9.888;2022-07-29T05:00:27;13.80;99.90
30475;DHT22;17264;53.340;9.888;2022-07-29T05:02:52;13.80;99.90
30475;DHT22;17264;53.340;9.888;2022-07-29T05:05:18;13.90;99.90
30475;DHT22;17264;53.340;9.888;2022-07-29T05:07:44;13.90;99.90
30475;DHT22;17264;53.340;9.888;2022-07-29T05:10:09;14.00;99.90
30475;DHT22;17264;53.340;9.888;2022-07-29T05:12:35;14.10;99.90
30475;DHT22;17264;53.340;9.888;2022-07-29T05:15:00;14.20;99.90
30475;DHT22;17264;53.340;9.888;2022-07-29T05:17:26;14.30;99.90
30475;DHT22;17264;53.340;9.888;2022-07-29T05:19:51;14.30;99.90
30475;DHT22;17264;53.340;9.888;2022-07-29T05:22:20;14.50;99.90
30475;DHT22;17264;53.340;9.888;2022-07-29T05:24:46;14.60;99.90
30475;DHT22;17264;53.340;9.888;2022-07-29T05:27:11;14.80;99.90
30475;DHT22;17264;53.340;9.888;2022-07-29T05:29:37;14.90;99.90
30475;DHT22;17264;53.340;9.888;2022-07-29T05:32:03;15.00;99.90
30475;DHT22;17264;53.340;9.888;2022-07-29T05:34:29;15.10;99.90
30475;DHT22;17264;53.340;9.888;2022-07-29T05:36:55;15.10;99.90
30475;DHT22;17264;53.340;9.888;2022-07-29T05:39:22;15.20;99.90
30475;DHT22;17264;53.340;9.888;2022-07-29T05:41:47;15.30;99.90
30475;DHT22;17264;53.340;9.888;2022-07-29T05:44:13;15.40;99.90
30475;DHT22;17264;53.340;9.888;2022-07-29T05:46:39;15.60;99.90
30475;DHT22;17264;53.340;9.888;2022-07-29T05:49:04;15.70;99.90
30475;DHT22;17264;53.340;9.888;2022-07-29T05:51:32;15.70;99.90
30475;DHT22;17264;53.340;9.888;2022-07-29T05:53:57;15.70;99.90
30475;DHT22;17264;53.340;9.888;2022-07-29T05:56:23;15.80;99.90
30475;DHT22;17264;53.340;9.888;2022-07-29T05:58:49;15.80;99.90
30475;DHT22;17264;53.340;9.888;2022-07-29T06:01:14;15.90;99.90
30475;DHT22;17264;53.340;9.888;2022-07-29T06:03:41;16.00;99.90
30475;DHT22;17264;53.340;9.888;2022-07-29T06:06:07;16.10;99.90
30475;DHT22;17264;53.340;9.888;2022-07-29T06:08:32;16.20;99.90
30475;DHT22;17264;53.340;9.888;2022-07-29T06:10:59;16.30;99.90
30475;DHT22;17264;53.340;9.888;2022-07-29T06:13:25;16.40;99.90
30475;DHT22;17264;53.340;9.888;2022-07-29T06:15:50;16.50;99.90
30475;DHT22;17264;53.340;9.888;2022-07-29T06:18:16;16.50;99.90
30475;DHT22;17264;53.340;9.888;2022-07-29T06:20:42;16.60;99.90
30475;DHT22;17264;53.340;9.888;2022-07-29T06:23:07;16.60;99.90
30475;DHT22;17264;53.340;9.888;2022-07-29T06:25:33;16.60;99.90
30475;DHT22;17264;53.340;9.888;2022-07-29T06:28:00;16.70;99.90
30475;DHT22;17264;53.340;9.888;2022-07-29T06:30:26;16.80;99.90
30475;DHT22;17264;53.340;9.888;2022-07-29T06:32:52;16.80;99.90
30475;DHT22;17264;53.340;9.888;2022-07-29T06:35:17;16.90;99.90
30475;DHT22;17264;53.340;9.888;2022-07-29T06:37:43;16.90;99.90
30475;DHT22;17264;53.340;9.888;2022-07-29T06:40:09;16.90;99.90
30475;DHT22;17264;53.340;9.888;2022-07-29T06:42:53;17.00;99.90
30475;DHT22;17264;53.340;9.888;2022-07-29T06:45:18;17.00;99.90
30475;DHT22;17264;53.340;9.888;2022-07-29T06:47:44;17.10;99.90
30475;DHT22;17264;53.340;9.888;2022-07-29T06:50:10;17.20;99.90
30475;DHT22;17264;53.340;9.888;2022-07-29T06:52:40;17.30;99.90
30475;DHT22;17264;53.340;9.888;2022-07-29T06:55:06;17.40;99.90
30475;DHT22;17264;53.340;9.888;2022-07-29T06:57:32;17.40;99.90
30475;DHT22;17264;53.340;9.888;2022-07-29T06:59:57;17.60;99.90
30475;DHT22;17264;53.340;9.888;2022-07-29T07:02:23;17.70;99.90
30475;DHT22;17264;53.340;9.888;2022-07-29T07:04:48;17.90;99.90
30475;DHT22;17264;53.340;9.888;2022-07-29T07:07:14;17.90;99.90
30475;DHT22;17264;53.340;9.888;2022-07-29T07:09:39;18.00;99.90
30475;DHT22;17264;53.340;9.888;2022-07-29T07:12:05;18.10;99.90
30475;DHT22;17264;53.340;9.888;2022-07-29T07:14:31;18.40;99.90
30475;DHT22;17264;53.340;9.888;2022-07-29T07:16:56;18.50;99.90
30475;DHT22;17264;53.340;9.888;2022-07-29T07:19:22;18.60;99.90
30475;DHT22;17264;53.340;9.888;2022-07-29T07:21:47;18.90;99.90
30475;DHT22;17264;53.340;9.888;2022-07-29T07:24:13;18.90;99.90
30475;DHT22;17264;53.340;9.888;2022-07-29T07:26:38;19.10;99.90
30475;DHT22;17264;53.340;9.888;2022-07-29T07:29:05;19.20;99.90
30475;DHT22;17264;53.340;9.888;2022-07-29T07:31:30;19.20;99.90
30475;DHT22;17264;53.340;9.888;2022-07-29T07:33:56;19.40;99.90
30475;DHT22;17264;53.340;9.888;2022-07-29T07:36:22;19.40;99.90
30475;DHT22;17264;53.340;9.888;2022-07-29T07:38:48;19.50;99.90
30475;DHT22;17264;53.340;9.888;2022-07-29T07:41:13;19.60;99.90
30475;DHT22;17264;53.340;9.888;2022-07-29T07:43:39;19.60;99.90
30475;DHT22;17264;53.340;9.888;2022-07-29T07:46:05;19.70;99.90
30475;DHT22;17264;53.340;9.888;2022-07-29T07:48:30;19.80;99.90
30475;DHT22;17264;53.340;9.888;2022-07-29T07:50:56;20.00;99.90
30475;DHT22;17264;53.340;9.888;2022-07-29T07:53:22;20.20;99.90
30475;DHT22;17264;53.340;9.888;2022-07-29T07:55:47;20.40;99.90
30475;DHT22;17264;53.340;9.888;2022-07-29T07:58:13;20.40;99.90
30475;DHT22;17264;53.340;9.888;2022-07-29T08:00:38;20.60;99.90
30475;DHT22;17264;53.340;9.888;2022-07-29T08:03:04;20.70;99.90
30475;DHT22;17264;53.340;9.888;2022-07-29T08:05:29;20.70;99.90
30475;DHT22;17264;53.340;9.888;2022-07-29T08:07:55;20.60;99.90
30475;DHT22;17264;53.340;9.888;2022-07-29T08:10:21;20.80;99.90
30475;DHT22;17264;53.340;9.888;2022-07-29T08:13:06;21.10;99.90
30475;DHT22;17264;53.340;9.888;2022-07-29T08:15:32;21.30;99.90
30475;DHT22;17264;53.340;9.888;2022-07-29T08:17:57;21.60;99.90
30475;DHT22;17264;53.340;9.888;2022-07-29T08:20:23;21.80;99.90
30475;DHT22;17264;53.340;9.888;2022-07-29T08:22:49;21.90;99.90
30475;DHT22;17264;53.340;9.888;2022-07-29T08:25:15;22.00;99.90
30475;DHT22;17264;53.340;9.888;2022-07-29T08:27:40;22.00;99.90
30475;DHT22;17264;53.340;9.888;2022-07-29T08:30:06;22.10;99.90
30475;DHT22;17264;53.340;9.888;2022-07-29T08:32:32;22.10;99.90
30475;DHT22;17264;53.340;9.888;2022-07-29T08:34:57;22.20;99.90
30475;DHT22;17264;53.340;9.888;2022-07-29T08:37:23;22.30;99.90
30475;DHT22;17264;53.340;9.888;2022-07-29T08:39:48;22.30;99.90
30475;DHT22;17264;53.340;9.888;2022-07-29T08:42:14;22.30;99.90
30475;DHT22;17264;53.340;9.888;2022-07-29T08:44:42;22.40;99.90
30475;DHT22;17264;53.340;9.888;2022-07-29T08:47:07;22.40;99.90
30475;DHT22;17264;53.340;9.888;2022-07-29T08:49:34;22.20;99.90
30475;DHT22;17264;53.340;9.888;2022-07-29T08:52:00;22.20;99.90
30475;DHT22;17264;53.340;9.888;2022-07-29T08:54:25;22.20;99.90
30475;DHT22;17264;53.340;9.888;2022-07-29T08:56:51;22.00;99.90
30475;DHT22;17264;53.340;9.888;2022-07-29T08:59:18;22.00;99.90
30475;DHT22;17264;53.340;9.888;2022-07-29T09:01:44;22.10;99.90
30475;DHT22;17264;53.340;9.888;2022-07-29T09:04:11;22.20;99.90
30475;DHT22;17264;53.340;9.888;2022-07-29T09:06:37;22.20;99.90
30475;DHT22;17264;53.340;9.888;2022-07-29T09:09:04;22.30;99.90
30475;DHT22;17264;53.340;9.888;2022-07-29T09:11:31;22.50;99.90
30475;DHT22;17264;53.340;9.888;2022-07-29T09:13:57;22.70;99.90
30475;DHT22;17264;53.340;9.888;2022-07-29T09:16:23;22.90;99.90
30475;DHT22;17264;53.340;9.888;2022-07-29T09:18:48;23.10;99.90
30475;DHT22;17264;53.340;9.888;2022-07-29T09:21:15;23.30;99.90
30475;DHT22;17264;53.340;9.888;2022-07-29T09:26:33;23.40;99.90
30475;DHT22;17264;53.340;9.888;2022-07-29T09:28:59;23.80;99.90
30475;DHT22;17264;53.340;9.888;2022-07-29T09:31:36;23.90;99.90
30475;DHT22;17264;53.340;9.888;2022-07-29T09:34:02;24.30;99.90
30475;DHT22;17264;53.340;9.888;2022-07-29T09:36:27;24.30;99.90
30475;DHT22;17264;53.340;9.888;2022-07-29T09:38:56;25.00;99.90
30475;DHT22;17264;53.340;9.888;2022-07-29T09:41:23;25.40;99.90
30475;DHT22;17264;53.340;9.888;2022-07-29T09:43:58;25.50;99.90
30475;DHT22;17264;53.340;9.888;2022-07-29T09:46:24;25.70;99.90
30475;DHT22;17264;53.340;9.888;2022-07-29T09:49:06;25.40;99.90
30475;DHT22;17264;53.340;9.888;2022-07-29T09:51:33;25.30;99.90
30475;DHT22;17264;53.340;9.888;2022-07-29T09:53:58;25.10;99.90
30475;DHT22;17264;53.340;9.888;2022-07-29T09:56:41;25.00;99.90
30475;DHT22;17264;53.340;9.888;2022-07-29T09:59:07;25.10;99.90
30475;DHT22;17264;53.340;9.888;2022-07-29T10:01:33;25.10;99.90
30475;DHT22;17264;53.340;9.888;2022-07-29T10:03:59;25.20;99.90
30475;DHT22;17264;53.340;9.888;2022-07-29T10:06:24;25.10;99.90
30475;DHT22;17264;53.340;9.888;2022-07-29T10:08:50;25.00;99.90
30475;DHT22;17264;53.340;9.888;2022-07-29T10:11:16;25.00;99.90
30475;DHT22;17264;53.340;9.888;2022-07-29T10:13:43;25.10;99.90
30475;DHT22;17264;53.340;9.888;2022-07-29T10:16:09;25.00;99.90
30475;DHT22;17264;53.340;9.888;2022-07-29T10:18:34;25.10;99.90
30475;DHT22;17264;53.340;9.888;2022-07-29T10:21:00;25.00;99.90
30475;DHT22;17264;53.340;9.888;2022-07-29T10:23:27;25.00;99.90
30475;DHT22;17264;53.340;9.888;2022-07-29T10:25:53;25.30;99.90
30475;DHT22;17264;53.340;9.888;2022-07-29T10:28:19;25.30;99.90
30475;DHT22;17264;53.340;9.888;2022-07-29T10:30:44;25.60;99.90
30475;DHT22;17264;53.340;9.888;2022-07-29T10:35:43;26.20;99.90
30475;DHT22;17264;53.340;9.888;2022-07-29T10:38:14;26.30;99.90
30475;DHT22;17264;53.340;9.888;2022-07-29T10:43:32;26.40;99.90
30475;DHT22;17264;53.340;9.888;2022-07-29T10:46:01;26.60;99.90
30475;DHT22;17264;53.340;9.888;2022-07-29T10:48:27;27.00;99.90
30475;DHT22;17264;53.340;9.888;2022-07-29T10:50:57;27.60;99.90
30475;DHT22;17264;53.340;9.888;2022-07-29T10:53:24;28.00;99.90
30475;DHT22;17264;53.340;9.888;2022-07-29T10:55:51;29.10;99.90
30475;DHT22;17264;53.340;9.888;2022-07-29T10:58:18;30.00;99.90
30475;DHT22;17264;53.340;9.888;2022-07-29T11:00:44;30.00;99.90
30475;DHT22;17264;53.340;9.888;2022-07-29T11:03:25;29.60;99.90
30475;DHT22;17264;53.340;9.888;2022-07-29T11:05:55;29.90;99.90
30475;DHT22;17264;53.340;9.888;2022-07-29T11:08:24;29.80;99.90
30475;DHT22;17264;53.340;9.888;2022-07-29T11:10:51;29.40;99.90
30475;DHT22;17264;53.340;9.888;2022-07-29T11:14:02;29.20;99.90
30475;DHT22;17264;53.340;9.888;2022-07-29T11:16:03;29.00;99.90
30475;DHT22;17264;53.340;9.888;2022-07-29T11:18:30;29.30;99.90
30475;DHT22;17264;53.340;9.888;2022-07-29T11:20:55;29.60;99.90
30475;DHT22;17264;53.340;9.888;2022-07-29T11:23:29;29.60;99.90
30475;DHT22;17264;53.340;9.888;2022-07-29T11:29:06;30.20;99.90
30475;DHT22;17264;53.340;9.888;2022-07-29T11:31:39;30.30;99.90
30475;DHT22;17264;53.340;9.888;2022-07-29T11:39:31;31.70;99.90
30475;DHT22;17264;53.340;9.888;2022-07-29T11:44:57;31.50;95.80
30475;DHT22;17264;53.340;9.888;2022-07-29T11:47:22;31.40;97.40
30475;DHT22;17264;53.340;9.888;2022-07-29T11:49:49;31.50;96.70
30475;DHT22;17264;53.340;9.888;2022-07-29T11:52:16;31.70;94.80
30475;DHT22;17264;53.340;9.888;2022-07-29T11:54:42;33.40;93.40
30475;DHT22;17264;53.340;9.888;2022-07-29T11:57:08;35.30;91.10
30475;DHT22;17264;53.340;9.888;2022-07-29T11:59:39;36.10;81.60
30475;DHT22;17264;53.340;9.888;2022-07-29T12:02:04;36.20;80.50
30475;DHT22;17264;53.340;9.888;2022-07-29T12:04:30;36.80;76.50
30475;DHT22;17264;53.340;9.888;2022-07-29T12:06:56;37.10;78.00
30475;DHT22;17264;53.340;9.888;2022-07-29T12:09:22;38.00;75.90
30475;DHT22;17264;53.340;9.888;2022-07-29T12:11:47;39.30;66.50
30475;DHT22;17264;53.340;9.888;2022-07-29T12:16:51;40.50;60.40
30475;DHT22;17264;53.340;9.888;2022-07-29T12:19:16;40.40;59.40
30475;DHT22;17264;53.340;9.888;2022-07-29T12:21:52;40.70;59.70
30475;DHT22;17264;53.340;9.888;2022-07-29T12:24:18;41.30;56.70
30475;DHT22;17264;53.340;9.888;2022-07-29T12:26:58;41.20;57.10
30475;DHT22;17264;53.340;9.888;2022-07-29T12:29:24;41.60;56.60
30475;DHT22;17264;53.340;9.888;2022-07-29T12:31:53;41.40;54.80
30475;DHT22;17264;53.340;9.888;2022-07-29T12:34:20;41.40;53.50
30475;DHT22;17264;53.340;9.888;2022-07-29T12:36:47;41.00;55.90
30475;DHT22;17264;53.340;9.888;2022-07-29T12:39:13;40.30;53.50
30475;DHT22;17264;53.340;9.888;2022-07-29T12:41:40;38.90;54.70
30475;DHT22;17264;53.340;9.888;2022-07-29T12:44:05;37.70;54.40
30475;DHT22;17264;53.340;9.888;2022-07-29T12:46:31;36.40;55.10
30475;DHT22;17264;53.340;9.888;2022-07-29T12:48:56;35.50;59.00
30475;DHT22;17264;53.340;9.888;2022-07-29T12:54:16;33.60;59.90
30475;DHT22;17264;53.340;9.888;2022-07-29T12:56:43;32.90;62.60
30475;DHT22;17264;53.340;9.888;2022-07-29T13:01:40;32.60;64.10
30475;DHT22;17264;53.340;9.888;2022-07-29T13:04:06;32.60;61.60
30475;DHT22;17264;53.340;9.888;2022-07-29T13:09:13;32.90;62.40
30475;DHT22;17264;53.340;9.888;2022-07-29T13:14:06;33.50;61.70
30475;DHT22;17264;53.340;9.888;2022-07-29T13:16:33;33.80;58.80
30475;DHT22;17264;53.340;9.888;2022-07-29T13:19:09;34.00;59.10
30475;DHT22;17264;53.340;9.888;2022-07-29T13:21:35;35.10;57.30
30475;DHT22;17264;53.340;9.888;2022-07-29T13:24:01;37.00;54.40
30475;DHT22;17264;53.340;9.888;2022-07-29T13:26:27;39.20;53.80
30475;DHT22;17264;53.340;9.888;2022-07-29T13:28:53;40.30;54.50
30475;DHT22;17264;53.340;9.888;2022-07-29T13:31:18;41.50;52.70
30475;DHT22;17264;53.340;9.888;2022-07-29T13:33:44;42.60;50.40
30475;DHT22;17264;53.340;9.888;2022-07-29T13:36:10;43.20;49.80
30475;DHT22;17264;53.340;9.888;2022-07-29T13:38:36;43.30;48.90
30475;DHT22;17264;53.340;9.888;2022-07-29T13:41:01;42.90;49.80
30475;DHT22;17264;53.340;9.888;2022-07-29T13:43:27;43.50;47.50
30475;DHT22;17264;53.340;9.888;2022-07-29T13:45:52;44.60;45.30
30475;DHT22;17264;53.340;9.888;2022-07-29T13:48:18;44.00;46.00
30475;DHT22;17264;53.340;9.888;2022-07-29T13:50:43;44.60;43.90
30475;DHT22;17264;53.340;9.888;2022-07-29T13:53:09;44.90;43.70
30475;DHT22;17264;53.340;9.888;2022-07-29T13:55:35;45.30;44.60
30475;DHT22;17264;53.340;9.888;2022-07-29T13:58:00;45.60;43.90
30475;DHT22;17264;53.340;9.888;2022-07-29T14:00:26;46.00;43.10
30475;DHT22;17264;53.340;9.888;2022-07-29T14:02:51;45.70;41.50
30475;DHT22;17264;53.340;9.888;2022-07-29T14:05:17;46.20;41.50
30475;DHT22;17264;53.340;9.888;2022-07-29T14:07:43;45.60;42.60
30475;DHT22;17264;53.340;9.888;2022-07-29T14:10:09;45.20;43.10
30475;DHT22;17264;53.340;9.888;2022-07-29T14:12:35;44.30;42.00
30475;DHT22;17264;53.340;9.888;2022-07-29T14:15:01;43.50;43.80
30475;DHT22;17264;53.340;9.888;2022-07-29T14:17:26;43.20;43.10
30475;DHT22;17264;53.340;9.888;2022-07-29T14:19:52;41.70;44.80
30475;DHT22;17264;53.340;9.888;2022-07-29T14:22:17;40.10;45.80
30475;DHT22;17264;53.340;9.888;2022-07-29T14:24:44;38.60;47.70
30475;DHT22;17264;53.340;9.888;2022-07-29T14:27:09;37.40;49.30
30475;DHT22;17264;53.340;9.888;2022-07-29T14:29:35;36.30;49.90
30475;DHT22;17264;53.340;9.888;2022-07-29T14:32:01;35.20;52.60
30475;DHT22;17264;53.340;9.888;2022-07-29T14:34:27;34.70;53.00
30475;DHT22;17264;53.340;9.888;2022-07-29T14:36:52;34.30;54.90
30475;DHT22;17264;53.340;9.888;2022-07-29T14:39:21;34.20;53.80
30475;DHT22;17264;53.340;9.888;2022-07-29T14:41:48;33.80;53.70
30475;DHT22;17264;53.340;9.888;2022-07-29T14:44:14;33.90;54.40
30475;DHT22;17264;53.340;9.888;2022-07-29T14:46:39;33.50;53.80
30475;DHT22;17264;53.340;9.888;2022-07-29T14:49:05;34.20;54.90
30475;DHT22;17264;53.340;9.888;2022-07-29T14:51:31;35.10;53.80
30475;DHT22;17264;53.340;9.888;2022-07-29T14:53:57;35.70;53.40
30475;DHT22;17264;53.340;9.888;2022-07-29T14:56:22;36.50;51.80
30475;DHT22;17264;53.340;9.888;2022-07-29T14:58:48;37.40;49.60
30475;DHT22;17264;53.340;9.888;2022-07-29T15:01:14;38.40;50.10
30475;DHT22;17264;53.340;9.888;2022-07-29T15:03:39;40.40;46.90
30475;DHT22;17264;53.340;9.888;2022-07-29T15:06:05;41.80;46.10
30475;DHT22;17264;53.340;9.888;2022-07-29T15:08:30;42.60;45.80
30475;DHT22;17264;53.340;9.888;2022-07-29T15:10:56;42.90;44.60
30475;DHT22;17264;53.340;9.888;2022-07-29T15:13:26;42.80;45.00
30475;DHT22;17264;53.340;9.888;2022-07-29T15:15:51;42.70;44.40
30475;DHT22;17264;53.340;9.888;2022-07-29T15:18:17;42.10;44.10
30475;DHT22;17264;53.340;9.888;2022-07-29T15:20:43;41.40;45.10
30475;DHT22;17264;53.340;9.888;2022-07-29T15:23:11;42.20;46.90
30475;DHT22;17264;53.340;9.888;2022-07-29T15:25:37;42.70;46.50
30475;DHT22;17264;53.340;9.888;2022-07-29T15:28:03;42.30;48.20
30475;DHT22;17264;53.340;9.888;2022-07-29T15:30:32;42.40;47.60
30475;DHT22;17264;53.340;9.888;2022-07-29T15:32:58;42.60;47.60
30475;DHT22;17264;53.340;9.888;2022-07-29T15:35:24;41.80;48.10
30475;DHT22;17264;53.340;9.888;2022-07-29T15:37:49;41.80;48.10
30475;DHT22;17264;53.340;9.888;2022-07-29T15:40:15;41.60;49.50
30475;DHT22;17264;53.340;9.888;2022-07-29T15:42:40;41.10;50.00
30475;DHT22;17264;53.340;9.888;2022-07-29T15:45:06;40.70;50.50
30475;DHT22;17264;53.340;9.888;2022-07-29T15:47:32;39.80;51.40
30475;DHT22;17264;53.340;9.888;2022-07-29T15:49:59;40.40;50.90
30475;DHT22;17264;53.340;9.888;2022-07-29T15:52:25;39.70;51.80
30475;DHT22;17264;53.340;9.888;2022-07-29T15:54:51;39.50;51.90
30475;DHT22;17264;53.340;9.888;2022-07-29T15:57:16;39.20;52.80
30475;DHT22;17264;53.340;9.888;2022-07-29T15:59:42;38.60;53.70
30475;DHT22;17264;53.340;9.888;2022-07-29T16:02:07;36.50;55.70
30475;DHT22;17264;53.340;9.888;2022-07-29T16:04:33;34.80;57.40
30475;DHT22;17264;53.340;9.888;2022-07-29T16:06:58;33.50;59.10
30475;DHT22;17264;53.340;9.888;2022-07-29T16:09:24;32.50;61.00
30475;DHT22;17264;53.340;9.888;2022-07-29T16:11:50;31.80;62.90
30475;DHT22;17264;53.340;9.888;2022-07-29T16:14:18;31.20;63.60
30475;DHT22;17264;53.340;9.888;2022-07-29T16:16:43;31.40;64.00
30475;DHT22;17264;53.340;9.888;2022-07-29T16:19:10;31.70;63.40